sensor_id;sensor_type;location;lat;lon;timestamp;P1;durP1;ratioP1;P2;durP2;ratioP2
1471;SDS011;963;42.644;23.336;2023-04-03T00:00:40;2.70;;;2.23;;
1471;SDS011;963;42.644;23.336;2023-04-03T00:03:06;5.33;;;2.00;;
1471;SDS011;963;42.644;23.336;2023-04-03T00:05:31;6.40;;;2.50;;
1471;SDS011;963;42.644;23.336;2023-04-03T00:07:57;3.10;;;2.10;;
1471;SDS011;963;42.644;23.336;2023-04-03T00:10:22;3.03;;;2.00;;
1471;SDS011;963;42.644;23.336;2023-04-03T00:12:48;2.53;;;2.17;;
1471;SDS011;963;42.644;23.336;2023-04-03T00:15:13;2.80;;;2.30;;
1471;SDS011;963;42.644;23.336;2023-04-03T00:17:39;3.43;;;2.40;;
1471;SDS011;963;42.644;23.336;2023-04-03T00:20:04;3.23;;;2.33;;
1471;SDS011;963;42.644;23.336;2023-04-03T00:22:30;3.30;;;2.00;;
1471;SDS011;963;42.644;23.336;2023-04-03T00:24:56;4.87;;;2.20;;
1471;SDS011;963;42.644;23.336;2023-04-03T00:27:21;2.80;;;2.00;;
1471;SDS011;963;42.644;23.336;2023-04-03T00:29:47;3.43;;;2.30;;
1471;SDS011;963;42.644;23.336;2023-04-03T00:32:13;6.17;;;2.57;;
1471;SDS011;963;42.644;23.336;2023-04-03T00:34:38;6.70;;;2.43;;
1471;SDS011;963;42.644;23.336;2023-04-03T00:37:03;2.60;;;1.93;;
1471;SDS011;963;42.644;23.336;2023-04-03T00:39:29;3.30;;;2.57;;
1471;SDS011;963;42.644;23.336;2023-04-03T00:41:55;3.70;;;2.20;;
1471;SDS011;963;42.644;23.336;2023-04-03T00:46:58;2.33;;;1.97;;
1471;SDS011;963;42.644;23.336;2023-04-03T00:49:24;4.33;;;2.10;;
1471;SDS011;963;42.644;23.336;2023-04-03T00:51:50;3.03;;;2.00;;
1471;SDS011;963;42.644;23.336;2023-04-03T00:54:16;8.30;;;2.00;;
1471;SDS011;963;42.644;23.336;2023-04-03T00:56:42;2.03;;;1.77;;
1471;SDS011;963;42.644;23.336;2023-04-03T00:59:13;2.50;;;2.10;;
1471;SDS011;963;42.644;23.336;2023-04-03T01:01:42;2.90;;;2.23;;
1471;SDS011;963;42.644;23.336;2023-04-03T01:06:57;3.47;;;2.40;;
1471;SDS011;963;42.644;23.336;2023-04-03T01:09:25;6.43;;;2.10;;
1471;SDS011;963;42.644;23.336;2023-04-03T01:11:51;3.50;;;2.20;;
1471;SDS011;963;42.644;23.336;2023-04-03T01:14:16;2.83;;;2.07;;
1471;SDS011;963;42.644;23.336;2023-04-03T01:16:42;2.97;;;2.30;;
1471;SDS011;963;42.644;23.336;2023-04-03T01:19:08;3.37;;;2.37;;
1471;SDS011;963;42.644;23.336;2023-04-03T01:24:30;3.20;;;2.53;;
1471;SDS011;963;42.644;23.336;2023-04-03T01:26:58;3.80;;;2.47;;
1471;SDS011;963;42.644;23.336;2023-04-03T01:29:26;4.17;;;2.80;;
1471;SDS011;963;42.644;23.336;2023-04-03T01:34:17;6.07;;;3.30;;
1471;SDS011;963;42.644;23.336;2023-04-03T01:36:42;4.80;;;3.37;;
1471;SDS011;963;42.644;23.336;2023-04-03T01:39:08;4.60;;;3.23;;
1471;SDS011;963;42.644;23.336;2023-04-03T01:41:34;5.70;;;3.60;;
1471;SDS011;963;42.644;23.336;2023-04-03T01:43:59;4.40;;;3.53;;
1471;SDS011;963;42.644;23.336;2023-04-03T01:46:25;4.50;;;3.07;;
1471;SDS011;963;42.644;23.336;2023-04-03T01:48:51;3.70;;;2.90;;
1471;SDS011;963;42.644;23.336;2023-04-03T01:51:16;3.87;;;3.17;;
1471;SDS011;963;42.644;23.336;2023-04-03T01:53:42;5.00;;;3.90;;
1471;SDS011;963;42.644;23.336;2023-04-03T01:56:07;4.20;;;3.20;;
1471;SDS011;963;42.644;23.336;2023-04-03T01:58:33;5.60;;;3.53;;
1471;SDS011;963;42.644;23.336;2023-04-03T02:00:58;4.30;;;3.20;;
1471;SDS011;963;42.644;23.336;2023-04-03T02:03:24;7.70;;;3.30;;
1471;SDS011;963;42.644;23.336;2023-04-03T02:05:50;4.50;;;3.30;;
1471;SDS011;963;42.644;23.336;2023-04-03T02:08:15;4.40;;;3.30;;
1471;SDS011;963;42.644;23.336;2023-04-03T02:10:43;4.87;;;3.57;;
1471;SDS011;963;42.644;23.336;2023-04-03T02:13:09;4.67;;;3.47;;
1471;SDS011;963;42.644;23.336;2023-04-03T02:15:37;5.30;;;3.60;;
1471;SDS011;963;42.644;23.336;2023-04-03T02:18:03;6.03;;;3.80;;
1471;SDS011;963;42.644;23.336;2023-04-03T02:20:28;5.47;;;3.77;;
1471;SDS011;963;42.644;23.336;2023-04-03T02:22:54;3.60;;;3.30;;
1471;SDS011;963;42.644;23.336;2023-04-03T02:25:19;3.57;;;2.80;;
1471;SDS011;963;42.644;23.336;2023-04-03T02:27:45;5.30;;;3.77;;
1471;SDS011;963;42.644;23.336;2023-04-03T02:30:11;4.70;;;3.40;;
1471;SDS011;963;42.644;23.336;2023-04-03T02:32:36;5.73;;;3.80;;
1471;SDS011;963;42.644;23.336;2023-04-03T02:35:02;6.73;;;3.50;;
1471;SDS011;963;42.644;23.336;2023-04-03T02:37:28;4.77;;;3.60;;
1471;SDS011;963;42.644;23.336;2023-04-03T02:39:53;4.83;;;3.53;;
1471;SDS011;963;42.644;23.336;2023-04-03T02:42:18;6.27;;;3.87;;
1471;SDS011;963;42.644;23.336;2023-04-03T02:44:44;9.20;;;4.43;;
1471;SDS011;963;42.644;23.336;2023-04-03T02:47:09;6.30;;;4.07;;
1471;SDS011;963;42.644;23.336;2023-04-03T02:49:35;6.93;;;3.93;;
1471;SDS011;963;42.644;23.336;2023-04-03T02:52:00;9.20;;;4.83;;
1471;SDS011;963;42.644;23.336;2023-04-03T02:54:26;8.07;;;4.60;;
1471;SDS011;963;42.644;23.336;2023-04-03T02:56:53;8.70;;;4.80;;
1471;SDS011;963;42.644;23.336;2023-04-03T02:59:19;9.80;;;4.40;;
1471;SDS011;963;42.644;23.336;2023-04-03T03:01:45;7.00;;;4.40;;
1471;SDS011;963;42.644;23.336;2023-04-03T03:04:10;5.00;;;3.83;;
1471;SDS011;963;42.644;23.336;2023-04-03T03:06:36;10.63;;;4.67;;
1471;SDS011;963;42.644;23.336;2023-04-03T03:09:01;5.63;;;3.90;;
1471;SDS011;963;42.644;23.336;2023-04-03T03:11:28;4.77;;;3.60;;
1471;SDS011;963;42.644;23.336;2023-04-03T03:13:54;4.53;;;3.40;;
1471;SDS011;963;42.644;23.336;2023-04-03T03:16:19;5.53;;;3.37;;
1471;SDS011;963;42.644;23.336;2023-04-03T03:18:45;9.63;;;4.03;;
1471;SDS011;963;42.644;23.336;2023-04-03T03:21:10;6.37;;;3.80;;
1471;SDS011;963;42.644;23.336;2023-04-03T03:23:36;4.60;;;3.63;;
1471;SDS011;963;42.644;23.336;2023-04-03T03:26:05;6.20;;;4.17;;
1471;SDS011;963;42.644;23.336;2023-04-03T03:28:33;8.60;;;4.13;;
1471;SDS011;963;42.644;23.336;2023-04-03T03:30:59;7.47;;;3.80;;
1471;SDS011;963;42.644;23.336;2023-04-03T03:33:25;8.33;;;4.00;;
1471;SDS011;963;42.644;23.336;2023-04-03T03:35:51;8.07;;;4.23;;
1471;SDS011;963;42.644;23.336;2023-04-03T03:38:17;7.83;;;4.50;;
1471;SDS011;963;42.644;23.336;2023-04-03T03:40:42;14.20;;;6.07;;
1471;SDS011;963;42.644;23.336;2023-04-03T03:43:08;9.00;;;5.63;;
1471;SDS011;963;42.644;23.336;2023-04-03T03:45:33;10.80;;;4.23;;
1471;SDS011;963;42.644;23.336;2023-04-03T03:47:59;10.03;;;4.70;;
1471;SDS011;963;42.644;23.336;2023-04-03T03:50:25;7.47;;;4.10;;
1471;SDS011;963;42.644;23.336;2023-04-03T03:52:50;12.70;;;5.47;;
1471;SDS011;963;42.644;23.336;2023-04-03T03:55:15;9.43;;;5.47;;
1471;SDS011;963;42.644;23.336;2023-04-03T03:57:41;11.30;;;4.90;;
1471;SDS011;963;42.644;23.336;2023-04-03T04:00:07;17.73;;;5.40;;
1471;SDS011;963;42.644;23.336;2023-04-03T04:02:33;13.50;;;4.90;;
1471;SDS011;963;42.644;23.336;2023-04-03T04:04:59;10.37;;;4.83;;
1471;SDS011;963;42.644;23.336;2023-04-03T04:07:24;10.50;;;5.00;;
1471;SDS011;963;42.644;23.336;2023-04-03T04:09:53;9.80;;;4.87;;
1471;SDS011;963;42.644;23.336;2023-04-03T04:12:18;8.13;;;4.90;;
1471;SDS011;963;42.644;23.336;2023-04-03T04:14:45;13.20;;;6.10;;
1471;SDS011;963;42.644;23.336;2023-04-03T04:17:12;6.00;;;5.30;;
1471;SDS011;963;42.644;23.336;2023-04-03T04:19:38;12.53;;;5.30;;
1471;SDS011;963;42.644;23.336;2023-04-03T04:22:03;10.20;;;5.23;;
1471;SDS011;963;42.644;23.336;2023-04-03T04:24:29;11.17;;;4.93;;
1471;SDS011;963;42.644;23.336;2023-04-03T04:26:54;11.30;;;5.77;;
1471;SDS011;963;42.644;23.336;2023-04-03T04:29:20;8.57;;;5.20;;
1471;SDS011;963;42.644;23.336;2023-04-03T04:31:46;6.00;;;4.33;;
1471;SDS011;963;42.644;23.336;2023-04-03T04:34:11;9.20;;;4.97;;
1471;SDS011;963;42.644;23.336;2023-04-03T04:36:38;12.63;;;5.53;;
1471;SDS011;963;42.644;23.336;2023-04-03T04:39:03;14.07;;;7.00;;
1471;SDS011;963;42.644;23.336;2023-04-03T04:41:30;17.00;;;6.13;;
1471;SDS011;963;42.644;23.336;2023-04-03T04:43:55;11.37;;;5.50;;
1471;SDS011;963;42.644;23.336;2023-04-03T04:46:21;17.07;;;5.00;;
1471;SDS011;963;42.644;23.336;2023-04-03T04:48:47;11.67;;;4.70;;
1471;SDS011;963;42.644;23.336;2023-04-03T04:51:13;21.03;;;6.20;;
1471;SDS011;963;42.644;23.336;2023-04-03T04:53:39;11.40;;;5.40;;
1471;SDS011;963;42.644;23.336;2023-04-03T04:56:05;8.17;;;5.77;;
1471;SDS011;963;42.644;23.336;2023-04-03T04:58:31;13.87;;;6.10;;
1471;SDS011;963;42.644;23.336;2023-04-03T05:01:00;8.83;;;5.50;;
1471;SDS011;963;42.644;23.336;2023-04-03T05:03:26;6.97;;;5.50;;
1471;SDS011;963;42.644;23.336;2023-04-03T05:05:51;12.17;;;5.53;;
1471;SDS011;963;42.644;23.336;2023-04-03T05:08:16;8.60;;;5.47;;
1471;SDS011;963;42.644;23.336;2023-04-03T05:10:42;12.93;;;6.60;;
1471;SDS011;963;42.644;23.336;2023-04-03T05:13:09;10.43;;;5.77;;
1471;SDS011;963;42.644;23.336;2023-04-03T05:15:34;9.67;;;5.40;;
1471;SDS011;963;42.644;23.336;2023-04-03T05:18:00;9.53;;;5.63;;
1471;SDS011;963;42.644;23.336;2023-04-03T05:20:25;13.50;;;6.30;;
1471;SDS011;963;42.644;23.336;2023-04-03T05:22:50;9.17;;;6.10;;
1471;SDS011;963;42.644;23.336;2023-04-03T05:25:16;13.63;;;6.60;;
1471;SDS011;963;42.644;23.336;2023-04-03T05:27:41;15.97;;;6.93;;
1471;SDS011;963;42.644;23.336;2023-04-03T05:30:07;18.77;;;7.67;;
1471;SDS011;963;42.644;23.336;2023-04-03T05:32:33;15.00;;;8.13;;
1471;SDS011;963;42.644;23.336;2023-04-03T05:34:58;13.70;;;6.80;;
1471;SDS011;963;42.644;23.336;2023-04-03T05:37:23;14.40;;;6.97;;
1471;SDS011;963;42.644;23.336;2023-04-03T05:39:49;16.80;;;7.53;;
1471;SDS011;963;42.644;23.336;2023-04-03T05:42:14;18.43;;;8.17;;
1471;SDS011;963;42.644;23.336;2023-04-03T05:44:40;19.57;;;7.97;;
1471;SDS011;963;42.644;23.336;2023-04-03T05:47:06;14.20;;;6.90;;
1471;SDS011;963;42.644;23.336;2023-04-03T05:49:32;19.20;;;6.50;;
1471;SDS011;963;42.644;23.336;2023-04-03T05:51:57;9.23;;;5.97;;
1471;SDS011;963;42.644;23.336;2023-04-03T05:54:24;14.83;;;6.37;;
1471;SDS011;963;42.644;23.336;2023-04-03T05:56:51;9.40;;;6.47;;
1471;SDS011;963;42.644;23.336;2023-04-03T05:59:17;9.73;;;6.70;;
1471;SDS011;963;42.644;23.336;2023-04-03T06:01:43;12.20;;;7.10;;
1471;SDS011;963;42.644;23.336;2023-04-03T06:04:09;8.10;;;6.13;;
1471;SDS011;963;42.644;23.336;2023-04-03T06:09:13;8.00;;;6.17;;
1471;SDS011;963;42.644;23.336;2023-04-03T06:11:39;16.63;;;7.53;;
1471;SDS011;963;42.644;23.336;2023-04-03T06:14:05;15.93;;;8.10;;
1471;SDS011;963;42.644;23.336;2023-04-03T06:16:31;12.73;;;8.33;;
1471;SDS011;963;42.644;23.336;2023-04-03T06:18:57;16.33;;;8.67;;
1471;SDS011;963;42.644;23.336;2023-04-03T06:21:22;22.73;;;9.30;;
1471;SDS011;963;42.644;23.336;2023-04-03T06:23:48;20.50;;;9.50;;
1471;SDS011;963;42.644;23.336;2023-04-03T06:26:13;18.87;;;9.83;;
1471;SDS011;963;42.644;23.336;2023-04-03T06:28:38;19.67;;;13.07;;
1471;SDS011;963;42.644;23.336;2023-04-03T06:31:04;28.00;;;10.47;;
1471;SDS011;963;42.644;23.336;2023-04-03T06:33:29;17.20;;;10.20;;
1471;SDS011;963;42.644;23.336;2023-04-03T06:35:56;25.03;;;10.30;;
1471;SDS011;963;42.644;23.336;2023-04-03T06:38:22;18.60;;;9.83;;
1471;SDS011;963;42.644;23.336;2023-04-03T06:40:48;16.73;;;8.67;;
1471;SDS011;963;42.644;23.336;2023-04-03T06:43:13;16.30;;;10.60;;
1471;SDS011;963;42.644;23.336;2023-04-03T06:45:39;17.67;;;11.83;;
1471;SDS011;963;42.644;23.336;2023-04-03T06:48:04;20.37;;;11.83;;
1471;SDS011;963;42.644;23.336;2023-04-03T06:50:30;23.30;;;11.40;;
1471;SDS011;963;42.644;23.336;2023-04-03T06:52:56;20.00;;;10.57;;
1471;SDS011;963;42.644;23.336;2023-04-03T06:55:21;21.20;;;11.00;;
1471;SDS011;963;42.644;23.336;2023-04-03T06:57:47;17.37;;;11.10;;
1471;SDS011;963;42.644;23.336;2023-04-03T07:00:13;21.30;;;11.60;;
1471;SDS011;963;42.644;23.336;2023-04-03T07:02:39;25.63;;;13.00;;
1471;SDS011;963;42.644;23.336;2023-04-03T07:05:05;20.70;;;11.73;;
1471;SDS011;963;42.644;23.336;2023-04-03T07:07:31;20.03;;;11.17;;
1471;SDS011;963;42.644;23.336;2023-04-03T07:09:58;17.13;;;11.47;;
1471;SDS011;963;42.644;23.336;2023-04-03T07:12:24;20.13;;;11.37;;
1471;SDS011;963;42.644;23.336;2023-04-03T07:14:50;26.50;;;12.13;;
1471;SDS011;963;42.644;23.336;2023-04-03T07:17:15;19.20;;;10.57;;
1471;SDS011;963;42.644;23.336;2023-04-03T07:19:41;18.00;;;10.33;;
1471;SDS011;963;42.644;23.336;2023-04-03T07:22:07;19.80;;;9.80;;
1471;SDS011;963;42.644;23.336;2023-04-03T07:24:33;28.33;;;11.00;;
1471;SDS011;963;42.644;23.336;2023-04-03T07:26:58;17.00;;;10.40;;
1471;SDS011;963;42.644;23.336;2023-04-03T07:29:24;29.57;;;11.07;;
1471;SDS011;963;42.644;23.336;2023-04-03T07:31:49;18.27;;;10.20;;
1471;SDS011;963;42.644;23.336;2023-04-03T07:34:15;18.37;;;9.47;;
1471;SDS011;963;42.644;23.336;2023-04-03T07:36:40;10.20;;;8.77;;
1471;SDS011;963;42.644;23.336;2023-04-03T07:39:06;16.03;;;9.97;;
1471;SDS011;963;42.644;23.336;2023-04-03T07:41:33;16.13;;;9.90;;
1471;SDS011;963;42.644;23.336;2023-04-03T07:43:58;17.10;;;10.43;;
1471;SDS011;963;42.644;23.336;2023-04-03T07:46:24;17.03;;;10.00;;
1471;SDS011;963;42.644;23.336;2023-04-03T07:48:49;11.30;;;8.50;;
1471;SDS011;963;42.644;23.336;2023-04-03T07:51:15;24.60;;;10.93;;
1471;SDS011;963;42.644;23.336;2023-04-03T07:53:41;18.13;;;10.70;;
1471;SDS011;963;42.644;23.336;2023-04-03T07:56:07;17.80;;;11.40;;
1471;SDS011;963;42.644;23.336;2023-04-03T07:58:33;12.70;;;9.23;;
1471;SDS011;963;42.644;23.336;2023-04-03T08:00:59;14.73;;;9.67;;
1471;SDS011;963;42.644;23.336;2023-04-03T08:03:25;16.43;;;9.27;;
1471;SDS011;963;42.644;23.336;2023-04-03T08:05:50;12.77;;;8.93;;
1471;SDS011;963;42.644;23.336;2023-04-03T08:08:17;19.73;;;11.23;;
1471;SDS011;963;42.644;23.336;2023-04-03T08:10:47;12.43;;;10.10;;
1471;SDS011;963;42.644;23.336;2023-04-03T08:13:19;18.90;;;11.53;;
1471;SDS011;963;42.644;23.336;2023-04-03T08:15:46;23.60;;;11.63;;
1471;SDS011;963;42.644;23.336;2023-04-03T08:18:12;21.83;;;13.00;;
1471;SDS011;963;42.644;23.336;2023-04-03T08:20:38;15.83;;;12.60;;
1471;SDS011;963;42.644;23.336;2023-04-03T08:23:05;22.97;;;15.27;;
1471;SDS011;963;42.644;23.336;2023-04-03T08:25:31;26.57;;;16.43;;
1471;SDS011;963;42.644;23.336;2023-04-03T08:27:57;19.73;;;12.90;;
1471;SDS011;963;42.644;23.336;2023-04-03T08:30:22;16.97;;;11.30;;
1471;SDS011;963;42.644;23.336;2023-04-03T08:32:47;20.27;;;11.73;;
1471;SDS011;963;42.644;23.336;2023-04-03T08:35:13;20.87;;;13.43;;
1471;SDS011;963;42.644;23.336;2023-04-03T08:37:39;24.13;;;13.37;;
1471;SDS011;963;42.644;23.336;2023-04-03T08:40:06;20.87;;;12.90;;
1471;SDS011;963;42.644;23.336;2023-04-03T08:42:39;16.13;;;11.50;;
1471;SDS011;963;42.644;23.336;2023-04-03T08:45:16;15.07;;;10.63;;
1471;SDS011;963;42.644;23.336;2023-04-03T08:50:22;15.43;;;11.53;;
1471;SDS011;963;42.644;23.336;2023-04-03T08:52:57;17.07;;;12.97;;
1471;SDS011;963;42.644;23.336;2023-04-03T08:55:39;15.43;;;11.83;;
1471;SDS011;963;42.644;23.336;2023-04-03T08:58:12;19.97;;;12.93;;
1471;SDS011;963;42.644;23.336;2023-04-03T09:03:19;16.63;;;12.07;;
1471;SDS011;963;42.644;23.336;2023-04-03T09:05:58;15.53;;;11.13;;
1471;SDS011;963;42.644;23.336;2023-04-03T09:13:33;14.70;;;9.80;;
1471;SDS011;963;42.644;23.336;2023-04-03T09:16:27;9.60;;;8.03;;
1471;SDS011;963;42.644;23.336;2023-04-03T09:19:02;19.20;;;11.13;;
1471;SDS011;963;42.644;23.336;2023-04-03T09:21:53;13.70;;;9.60;;
1471;SDS011;963;42.644;23.336;2023-04-03T09:24:22;13.00;;;9.07;;
1471;SDS011;963;42.644;23.336;2023-04-03T09:26:53;11.23;;;7.40;;
1471;SDS011;963;42.644;23.336;2023-04-03T09:29:27;11.50;;;8.17;;
1471;SDS011;963;42.644;23.336;2023-04-03T09:31:56;12.30;;;6.33;;
1471;SDS011;963;42.644;23.336;2023-04-03T09:34:28;3.70;;;3.30;;
1471;SDS011;963;42.644;23.336;2023-04-03T09:36:57;4.33;;;3.20;;
1471;SDS011;963;42.644;23.336;2023-04-03T09:39:25;3.17;;;2.20;;
1471;SDS011;963;42.644;23.336;2023-04-03T09:41:56;3.20;;;2.60;;
1471;SDS011;963;42.644;23.336;2023-04-03T09:44:35;4.20;;;1.80;;
1471;SDS011;963;42.644;23.336;2023-04-03T09:47:19;9.10;;;2.93;;
1471;SDS011;963;42.644;23.336;2023-04-03T09:49:50;4.63;;;2.70;;
1471;SDS011;963;42.644;23.336;2023-04-03T09:52:34;3.90;;;2.57;;
1471;SDS011;963;42.644;23.336;2023-04-03T09:55:06;4.50;;;2.43;;
1471;SDS011;963;42.644;23.336;2023-04-03T09:57:42;6.03;;;2.40;;
1471;SDS011;963;42.644;23.336;2023-04-03T10:00:19;3.17;;;2.60;;
1471;SDS011;963;42.644;23.336;2023-04-03T10:02:46;5.87;;;2.17;;
1471;SDS011;963;42.644;23.336;2023-04-03T10:10:38;7.10;;;2.90;;
1471;SDS011;963;42.644;23.336;2023-04-03T10:13:09;4.53;;;3.20;;
1471;SDS011;963;42.644;23.336;2023-04-03T10:16:12;3.57;;;3.20;;
1471;SDS011;963;42.644;23.336;2023-04-03T10:30:10;9.57;;;4.27;;
1471;SDS011;963;42.644;23.336;2023-04-03T10:33:18;5.97;;;3.93;;
1471;SDS011;963;42.644;23.336;2023-04-03T10:35:50;7.10;;;3.97;;
1471;SDS011;963;42.644;23.336;2023-04-03T10:41:12;5.13;;;2.93;;
1471;SDS011;963;42.644;23.336;2023-04-03T10:49:28;6.20;;;2.90;;
1471;SDS011;963;42.644;23.336;2023-04-03T10:52:14;6.00;;;3.30;;
1471;SDS011;963;42.644;23.336;2023-04-03T10:54:45;8.67;;;3.10;;
1471;SDS011;963;42.644;23.336;2023-04-03T10:57:18;4.40;;;3.50;;
1471;SDS011;963;42.644;23.336;2023-04-03T10:59:48;7.67;;;4.07;;
1471;SDS011;963;42.644;23.336;2023-04-03T11:04:58;3.50;;;2.93;;
1471;SDS011;963;42.644;23.336;2023-04-03T11:07:28;11.40;;;2.90;;
1471;SDS011;963;42.644;23.336;2023-04-03T11:10:00;3.70;;;3.27;;
1471;SDS011;963;42.644;23.336;2023-04-03T11:12:44;6.90;;;4.73;;
1471;SDS011;963;42.644;23.336;2023-04-03T11:15:15;7.07;;;4.50;;
1471;SDS011;963;42.644;23.336;2023-04-03T11:17:46;11.40;;;4.40;;
1471;SDS011;963;42.644;23.336;2023-04-03T11:20:27;6.07;;;4.00;;
1471;SDS011;963;42.644;23.336;2023-04-03T11:23:02;6.73;;;4.50;;
1471;SDS011;963;42.644;23.336;2023-04-03T11:25:31;5.97;;;4.43;;
1471;SDS011;963;42.644;23.336;2023-04-03T11:28:06;4.90;;;4.07;;
1471;SDS011;963;42.644;23.336;2023-04-03T11:30:44;4.33;;;3.93;;
1471;SDS011;963;42.644;23.336;2023-04-03T11:36:28;8.00;;;4.33;;
1471;SDS011;963;42.644;23.336;2023-04-03T11:38:57;6.90;;;4.87;;
1471;SDS011;963;42.644;23.336;2023-04-03T11:41:29;5.47;;;4.77;;
1471;SDS011;963;42.644;23.336;2023-04-03T11:46:48;6.43;;;5.43;;
1471;SDS011;963;42.644;23.336;2023-04-03T11:55:34;5.80;;;5.20;;
1471;SDS011;963;42.644;23.336;2023-04-03T12:24:23;6.57;;;4.57;;
1471;SDS011;963;42.644;23.336;2023-04-03T12:29:35;7.03;;;4.40;;
1471;SDS011;963;42.644;23.336;2023-04-03T12:45:55;9.13;;;5.60;;
1471;SDS011;963;42.644;23.336;2023-04-03T12:48:17;6.93;;;5.50;;
1471;SDS011;963;42.644;23.336;2023-04-03T12:50:47;6.93;;;5.63;;
1471;SDS011;963;42.644;23.336;2023-04-03T12:53:18;8.00;;;5.63;;
1471;SDS011;963;42.644;23.336;2023-04-03T12:55:47;10.00;;;6.80;;
1471;SDS011;963;42.644;23.336;2023-04-03T12:58:22;8.43;;;5.93;;
1471;SDS011;963;42.644;23.336;2023-04-03T13:03:42;7.20;;;6.00;;
1471;SDS011;963;42.644;23.336;2023-04-03T13:06:10;8.40;;;5.50;;
1471;SDS011;963;42.644;23.336;2023-04-03T13:08:59;8.10;;;5.77;;
1471;SDS011;963;42.644;23.336;2023-04-03T13:11:35;5.77;;;5.27;;
1471;SDS011;963;42.644;23.336;2023-04-03T13:14:12;6.87;;;6.17;;
1471;SDS011;963;42.644;23.336;2023-04-03T13:16:41;9.30;;;6.50;;
1471;SDS011;963;42.644;23.336;2023-04-03T13:19:15;8.80;;;6.57;;
1471;SDS011;963;42.644;23.336;2023-04-03T13:21:43;8.40;;;6.43;;
1471;SDS011;963;42.644;23.336;2023-04-03T13:24:10;8.73;;;6.73;;
1471;SDS011;963;42.644;23.336;2023-04-03T13:26:36;7.70;;;6.43;;
1471;SDS011;963;42.644;23.336;2023-04-03T13:29:03;7.43;;;6.60;;
1471;SDS011;963;42.644;23.336;2023-04-03T13:31:32;6.90;;;5.70;;
1471;SDS011;963;42.644;23.336;2023-04-03T13:34:09;7.13;;;6.40;;
1471;SDS011;963;42.644;23.336;2023-04-03T13:36:40;6.70;;;6.00;;
1471;SDS011;963;42.644;23.336;2023-04-03T13:41:41;9.70;;;7.80;;
1471;SDS011;963;42.644;23.336;2023-04-03T13:46:58;7.93;;;6.30;;
1471;SDS011;963;42.644;23.336;2023-04-03T13:51:51;8.97;;;6.23;;
1471;SDS011;963;42.644;23.336;2023-04-03T13:54:24;7.80;;;7.00;;
1471;SDS011;963;42.644;23.336;2023-04-03T13:56:56;10.30;;;7.23;;
1471;SDS011;963;42.644;23.336;2023-04-03T13:59:24;7.57;;;6.87;;
1471;SDS011;963;42.644;23.336;2023-04-03T14:04:29;6.83;;;6.13;;
1471;SDS011;963;42.644;23.336;2023-04-03T14:06:57;5.80;;;5.30;;
1471;SDS011;963;42.644;23.336;2023-04-03T14:09:24;6.80;;;5.30;;
1471;SDS011;963;42.644;23.336;2023-04-03T14:11:53;6.57;;;5.70;;
1471;SDS011;963;42.644;23.336;2023-04-03T14:14:24;5.10;;;4.60;;
1471;SDS011;963;42.644;23.336;2023-04-03T14:16:56;5.33;;;4.73;;
1471;SDS011;963;42.644;23.336;2023-04-03T14:19:34;7.17;;;5.53;;
1471;SDS011;963;42.644;23.336;2023-04-03T14:22:03;8.17;;;6.77;;
1471;SDS011;963;42.644;23.336;2023-04-03T14:24:37;6.77;;;5.93;;
1471;SDS011;963;42.644;23.336;2023-04-03T14:27:05;5.80;;;5.30;;
1471;SDS011;963;42.644;23.336;2023-04-03T14:29:40;5.40;;;4.90;;
1471;SDS011;963;42.644;23.336;2023-04-03T14:32:06;4.97;;;4.53;;
1471;SDS011;963;42.644;23.336;2023-04-03T14:34:31;4.90;;;3.73;;
1471;SDS011;963;42.644;23.336;2023-04-03T14:36:57;5.67;;;3.70;;
1471;SDS011;963;42.644;23.336;2023-04-03T14:39:22;4.70;;;3.60;;
1471;SDS011;963;42.644;23.336;2023-04-03T14:41:47;3.97;;;3.37;;
1471;SDS011;963;42.644;23.336;2023-04-03T14:44:13;7.23;;;4.60;;
1471;SDS011;963;42.644;23.336;2023-04-03T14:46:39;4.73;;;3.90;;
1471;SDS011;963;42.644;23.336;2023-04-03T14:49:14;4.83;;;4.07;;
1471;SDS011;963;42.644;23.336;2023-04-03T14:51:42;4.47;;;4.00;;
1471;SDS011;963;42.644;23.336;2023-04-03T14:54:15;6.07;;;5.20;;
1471;SDS011;963;42.644;23.336;2023-04-03T14:56:43;5.00;;;4.50;;
1471;SDS011;963;42.644;23.336;2023-04-03T14:59:09;5.67;;;4.50;;
1471;SDS011;963;42.644;23.336;2023-04-03T15:01:36;5.90;;;5.30;;
1471;SDS011;963;42.644;23.336;2023-04-03T15:04:05;5.40;;;4.90;;
1471;SDS011;963;42.644;23.336;2023-04-03T15:06:35;6.13;;;5.53;;
1471;SDS011;963;42.644;23.336;2023-04-03T15:09:01;5.57;;;4.57;;
1471;SDS011;963;42.644;23.336;2023-04-03T15:11:28;5.63;;;5.13;;
1471;SDS011;963;42.644;23.336;2023-04-03T15:13:53;6.50;;;5.13;;
1471;SDS011;963;42.644;23.336;2023-04-03T15:16:19;4.97;;;4.47;;
1471;SDS011;963;42.644;23.336;2023-04-03T15:18:45;4.90;;;4.40;;
1471;SDS011;963;42.644;23.336;2023-04-03T15:21:11;5.37;;;4.70;;
1471;SDS011;963;42.644;23.336;2023-04-03T15:23:37;6.50;;;4.57;;
1471;SDS011;963;42.644;23.336;2023-04-03T15:26:02;4.93;;;4.43;;
1471;SDS011;963;42.644;23.336;2023-04-03T15:30:55;5.27;;;4.77;;
1471;SDS011;963;42.644;23.336;2023-04-03T15:33:21;6.87;;;5.97;;
1471;SDS011;963;42.644;23.336;2023-04-03T15:35:47;6.13;;;5.57;;
1471;SDS011;963;42.644;23.336;2023-04-03T15:38:12;6.47;;;5.83;;
1471;SDS011;963;42.644;23.336;2023-04-03T15:40:38;8.97;;;6.97;;
1471;SDS011;963;42.644;23.336;2023-04-03T15:43:04;11.37;;;7.57;;
1471;SDS011;963;42.644;23.336;2023-04-03T15:45:30;7.60;;;6.70;;
1471;SDS011;963;42.644;23.336;2023-04-03T15:47:58;8.10;;;7.27;;
1471;SDS011;963;42.644;23.336;2023-04-03T15:50:24;10.73;;;7.40;;
1471;SDS011;963;42.644;23.336;2023-04-03T15:52:50;8.70;;;6.37;;
1471;SDS011;963;42.644;23.336;2023-04-03T15:55:22;8.47;;;6.60;;
1471;SDS011;963;42.644;23.336;2023-04-03T15:57:48;9.43;;;7.10;;
1471;SDS011;963;42.644;23.336;2023-04-03T16:00:14;9.37;;;7.03;;
1471;SDS011;963;42.644;23.336;2023-04-03T16:02:40;7.33;;;6.10;;
1471;SDS011;963;42.644;23.336;2023-04-03T16:05:07;6.40;;;5.80;;
1471;SDS011;963;42.644;23.336;2023-04-03T16:07:33;6.77;;;5.50;;
1471;SDS011;963;42.644;23.336;2023-04-03T16:09:59;37.67;;;25.73;;
1471;SDS011;963;42.644;23.336;2023-04-03T16:12:25;14.27;;;11.03;;
1471;SDS011;963;42.644;23.336;2023-04-03T16:14:50;8.53;;;6.90;;
1471;SDS011;963;42.644;23.336;2023-04-03T16:17:16;12.37;;;9.60;;
1471;SDS011;963;42.644;23.336;2023-04-03T16:19:42;9.27;;;7.47;;
1471;SDS011;963;42.644;23.336;2023-04-03T16:22:07;7.83;;;6.60;;
1471;SDS011;963;42.644;23.336;2023-04-03T16:24:33;7.67;;;5.73;;
1471;SDS011;963;42.644;23.336;2023-04-03T16:26:58;7.70;;;5.73;;
1471;SDS011;963;42.644;23.336;2023-04-03T16:29:24;7.53;;;5.87;;
1471;SDS011;963;42.644;23.336;2023-04-03T16:31:50;7.93;;;6.63;;
1471;SDS011;963;42.644;23.336;2023-04-03T16:34:16;8.63;;;6.43;;
1471;SDS011;963;42.644;23.336;2023-04-03T16:36:42;10.70;;;8.00;;
1471;SDS011;963;42.644;23.336;2023-04-03T16:39:07;10.27;;;8.40;;
1471;SDS011;963;42.644;23.336;2023-04-03T16:41:35;5.33;;;4.60;;
1471;SDS011;963;42.644;23.336;2023-04-03T16:44:00;3.07;;;2.67;;
1471;SDS011;963;42.644;23.336;2023-04-03T16:46:26;4.27;;;3.30;;
1471;SDS011;963;42.644;23.336;2023-04-03T16:48:51;6.30;;;3.87;;
1471;SDS011;963;42.644;23.336;2023-04-03T16:51:17;3.77;;;3.07;;
1471;SDS011;963;42.644;23.336;2023-04-03T16:53:42;4.83;;;3.83;;
1471;SDS011;963;42.644;23.336;2023-04-03T16:56:07;4.47;;;3.50;;
1471;SDS011;963;42.644;23.336;2023-04-03T16:58:33;8.27;;;6.60;;
1471;SDS011;963;42.644;23.336;2023-04-03T17:00:58;7.67;;;5.43;;
1471;SDS011;963;42.644;23.336;2023-04-03T17:03:32;4.30;;;3.13;;
1471;SDS011;963;42.644;23.336;2023-04-03T17:05:58;3.87;;;2.83;;
1471;SDS011;963;42.644;23.336;2023-04-03T17:08:23;4.00;;;3.30;;
1471;SDS011;963;42.644;23.336;2023-04-03T17:10:49;4.13;;;2.97;;
1471;SDS011;963;42.644;23.336;2023-04-03T17:13:16;5.23;;;3.80;;